Time;durP1;ratioP1;P1;durP2;ratioP2;P2;SDS_P1;SDS_P2;PMS_P1;PMS_P2;Temp;Humidity;BMP_temperature;BMP_pressure;BME280_temperature;BME280_humidity;BME280_pressure;Samples;Min_cycle;Max_cycle;Signal;HPM_P1;HPM_P2
2021/11/09 00:00:42;;;;;;;24.10;9.10;;;7.30;95.70;;;;;;5055288;28;20040;-72
2021/11/09 00:03:09;;;;;;;21.10;8.43;;;7.30;95.70;;;;;;5054974;28;20029;-72
2021/11/09 00:05:53;;;;;;;25.47;8.73;;;7.30;95.80;;;;;;5054143;28;20044;-72
2021/11/09 00:08:25;;;;;;;24.13;8.53;;;7.30;95.80;;;;;;5083574;28;20127;-72
2021/11/09 00:10:52;;;;;;;19.27;8.67;;;7.20;95.80;;;;;;5055208;28;20032;-73
2021/11/09 00:13:19;;;;;;;21.97;8.40;;;7.20;95.90;;;;;;5054850;28;20052;-72
2021/11/09 00:15:45;;;;;;;30.03;9.73;;;7.30;95.90;;;;;;5053445;28;20029;-72
2021/11/09 00:18:11;;;;;;;22.03;8.60;;;7.10;95.90;;;;;;5087141;28;20048;-72
2021/11/09 00:20:38;;;;;;;31.03;9.37;;;7.20;96.00;;;;;;5054971;28;20033;-73
2021/11/09 00:23:05;;;;;;;26.13;9.50;;;7.10;96.00;;;;;;5086642;28;20032;-73
2021/11/09 00:25:32;;;;;;;17.17;8.20;;;7.10;96.00;;;;;;5086842;28;20116;-74
2021/11/09 00:27:58;;;;;;;19.93;8.83;;;7.10;96.00;;;;;;5053256;28;20025;-72
2021/11/09 00:30:25;;;;;;;21.83;8.80;;;7.00;96.00;;;;;;5053299;28;20110;-72
2021/11/09 00:32:51;;;;;;;18.43;8.03;;;7.00;96.00;;;;;;5086538;28;20033;-72
2021/11/09 00:35:21;;;;;;;16.07;8.40;;;7.00;96.00;;;;;;5054347;28;20029;-72
2021/11/09 00:37:48;;;;;;;21.43;8.00;;;6.90;96.00;;;;;;5054371;28;20103;-72
2021/11/09 00:40:18;;;;;;;17.53;8.07;;;6.90;96.00;;;;;;5086901;28;20036;-73
2021/11/09 00:42:44;;;;;;;15.93;8.30;;;6.80;96.00;;;;;;5052778;28;20083;-72
2021/11/09 00:45:11;;;;;;;18.80;8.13;;;6.80;96.10;;;;;;5054232;28;20036;-72
2021/11/09 00:47:37;;;;;;;19.03;8.33;;;6.80;96.10;;;;;;5054449;28;20041;-72
2021/11/09 00:50:06;;;;;;;20.73;8.20;;;6.70;96.10;;;;;;5069813;28;20036;-72
2021/11/09 00:52:33;;;;;;;22.40;8.07;;;6.70;96.20;;;;;;5052863;28;20470;-73
2021/11/09 00:54:59;;;;;;;19.77;8.43;;;6.60;96.20;;;;;;5054364;28;20029;-73
2021/11/09 00:57:24;;;;;;;21.60;8.30;;;6.60;96.20;;;;;;5053817;28;20032;-72
2021/11/09 00:59:50;;;;;;;15.73;8.53;;;6.60;96.30;;;;;;5069137;28;20025;-73
2021/11/09 01:02:15;;;;;;;23.50;8.43;;;6.60;96.30;;;;;;5052522;28;20021;-73
2021/11/09 01:04:41;;;;;;;20.07;8.27;;;6.50;96.40;;;;;;5069282;28;20496;-73
2021/11/09 01:07:07;;;;;;;16.00;7.40;;;6.60;96.40;;;;;;5053972;28;20040;-73
2021/11/09 01:09:33;;;;;;;16.17;9.00;;;6.60;96.50;;;;;;5069248;28;20467;-73
2021/11/09 01:11:59;;;;;;;21.53;8.87;;;6.60;96.80;;;;;;5053775;28;20033;-73
2021/11/09 01:14:25;;;;;;;20.67;9.13;;;6.50;96.50;;;;;;5052241;28;20040;-74
2021/11/09 01:16:52;;;;;;;18.13;8.50;;;6.50;96.60;;;;;;5052520;28;20155;-75
2021/11/09 01:19:19;;;;;;;19.70;9.33;;;6.50;96.60;;;;;;5052442;28;20461;-75
2021/11/09 01:21:45;;;;;;;25.53;10.87;;;6.50;96.70;;;;;;5068379;28;20032;-75
2021/11/09 01:24:11;;;;;;;23.97;9.20;;;6.50;96.70;;;;;;5053975;28;20037;-75
2021/11/09 01:26:39;;;;;;;24.13;10.50;;;6.50;96.80;;;;;;5053549;28;20413;-75
2021/11/09 01:29:06;;;;;;;19.87;10.17;;;6.50;96.80;;;;;;5053880;28;20442;-74
2021/11/09 01:31:33;;;;;;;21.23;9.30;;;6.50;96.80;;;;;;5052328;28;20061;-75
2021/11/09 01:33:59;;;;;;;18.50;9.03;;;6.50;96.90;;;;;;5068743;28;20503;-75
2021/11/09 01:36:26;;;;;;;17.97;8.83;;;6.50;96.90;;;;;;5052504;28;20055;-75
2021/11/09 01:38:52;;;;;;;18.87;10.27;;;6.40;96.90;;;;;;5069003;28;20029;-75
2021/11/09 01:41:18;;;;;;;22.33;9.47;;;6.40;96.90;;;;;;5085958;28;20033;-75
2021/11/09 01:43:44;;;;;;;23.53;10.23;;;6.40;96.90;;;;;;5085809;28;20047;-75
2021/11/09 01:46:12;;;;;;;15.83;8.33;;;6.40;96.90;;;;;;5053052;28;20469;-75
2021/11/09 01:48:40;;;;;;;21.13;8.93;;;6.30;96.90;;;;;;5085387;28;20072;-75
2021/11/09 01:51:09;;;;;;;18.70;8.47;;;6.30;96.90;;;;;;5053422;28;20029;-75
2021/11/09 01:53:36;;;;;;;16.53;7.50;;;6.30;96.90;;;;;;5085136;28;20025;-75
2021/11/09 01:56:06;;;;;;;18.13;8.33;;;6.20;96.90;;;;;;5052069;28;20059;-75
2021/11/09 01:58:32;;;;;;;18.60;8.47;;;6.20;96.90;;;;;;5053264;28;20025;-76
2021/11/09 02:01:13;;;;;;;13.07;7.90;;;6.20;97.00;;;;;;5053366;28;20458;-75
2021/11/09 02:03:42;;;;;;;17.17;8.43;;;6.20;97.00;;;;;;5052914;28;20025;-75
2021/11/09 02:06:09;;;;;;;17.10;8.50;;;6.20;97.10;;;;;;5052932;28;20032;-75
2021/11/09 02:08:35;;;;;;;19.77;8.67;;;6.10;97.10;;;;;;5052975;28;20041;-75
2021/11/09 02:11:01;;;;;;;20.50;10.47;;;6.10;97.10;;;;;;5050115;28;20079;-75
2021/11/09 02:13:27;;;;;;;21.90;9.27;;;6.20;97.10;;;;;;5051284;28;20082;-75
2021/11/09 02:15:52;;;;;;;24.60;10.87;;;6.10;97.10;;;;;;5034575;28;20119;-75
2021/11/09 02:18:20;;;;;;;20.50;10.03;;;6.00;97.10;;;;;;5051396;28;20029;-75
2021/11/09 02:20:56;;;;;;;15.97;9.03;;;6.10;97.20;;;;;;5052656;28;20033;-75
2021/11/09 02:23:22;;;;;;;17.13;8.83;;;6.00;97.20;;;;;;5052785;28;20025;-75
2021/11/09 02:25:47;;;;;;;24.27;10.30;;;6.00;97.30;;;;;;5049343;28;20099;-75
2021/11/09 02:28:14;;;;;;;18.00;9.43;;;6.00;97.30;;;;;;5048447;28;20462;-76
2021/11/09 02:30:40;;;;;;;20.83;10.43;;;6.00;97.30;;;;;;5031178;28;20054;-75
2021/11/09 02:33:07;;;;;;;22.60;11.03;;;6.00;97.30;;;;;;5034938;28;20097;-75
2021/11/09 02:35:33;;;;;;;20.13;9.00;;;6.00;97.30;;;;;;5035774;28;20470;-75
2021/11/09 02:37:59;;;;;;;22.93;10.43;;;6.00;97.40;;;;;;5037032;28;20040;-75
2021/11/09 02:40:26;;;;;;;20.63;9.53;;;5.90;97.40;;;;;;5036679;28;20037;-75
2021/11/09 02:42:55;;;;;;;28.27;9.23;;;5.90;97.40;;;;;;5036488;28;20533;-75
2021/11/09 02:45:34;;;;;;;19.93;9.73;;;6.00;97.50;;;;;;5035356;28;20026;-75
2021/11/09 02:48:45;;;;;;;23.30;9.87;;;5.90;97.50;;;;;;5036646;28;20377;-75
2021/11/09 02:50:54;;;;;;;28.67;10.77;;;5.80;97.50;;;;;;5038638;28;20033;-75
2021/11/09 02:58:59;;;;;;;26.07;10.37;;;5.90;97.60;;;;;;5036943;28;20364;-75
2021/11/09 03:01:38;;;;;;;28.00;10.07;;;6.00;97.60;;;;;;5036388;28;20501;-75
2021/11/09 03:04:49;;;;;;;18.10;9.33;;;6.10;97.50;;;;;;5036483;28;20100;-75
2021/11/09 03:07:03;;;;;;;18.50;9.40;;;5.90;97.50;;;;;;5037032;28;20053;-75
2021/11/09 03:09:46;;;;;;;25.73;10.23;;;6.00;97.50;;;;;;5019419;28;20025;-75
2021/11/09 03:12:12;;;;;;;23.17;9.88;;;5.90;97.40;;;;;;5034938;28;20030;-75
2021/11/09 03:14:40;;;;;;;18.17;10.30;;;5.90;97.40;;;;;;5036165;28;20021;-75
2021/11/09 03:17:15;;;;;;;20.67;9.33;;;5.80;97.40;;;;;;5040995;28;20054;-75
2021/11/09 03:19:46;;;;;;;23.50;9.10;;;5.80;97.50;;;;;;5049826;28;20056;-75
2021/11/09 03:44:32;;;;;;;19.43;9.67;;;5.70;97.50;;;;;;5034887;28;20128;-75
2021/11/09 03:47:07;;;;;;;19.27;10.33;;;5.60;97.50;;;;;;5035321;28;20025;-76
2021/11/09 03:49:34;;;;;;;23.97;9.23;;;5.60;97.50;;;;;;5035019;28;20030;-75
2021/11/09 03:52:06;;;;;;;20.93;9.00;;;5.60;97.50;;;;;;5033881;28;20080;-75
2021/11/09 03:54:32;;;;;;;21.53;9.33;;;5.60;97.50;;;;;;5033990;28;20378;-75
2021/11/09 04:04:59;;;;;;;20.73;9.70;;;5.50;97.60;;;;;;5034920;28;20045;-73
2021/11/09 04:20:17;;;;;;;22.00;10.27;;;5.40;97.70;;;;;;5034604;28;20030;-73
2021/11/09 04:25:45;;;;;;;24.77;10.53;;;5.40;97.80;;;;;;5043341;28;20044;-73
2021/11/09 04:52:12;;;;;;;28.60;12.47;;;5.40;98.00;;;;;;5048549;28;20132;-75
2021/11/09 05:08:17;;;;;;;28.70;12.17;;;5.30;98.00;;;;;;5054598;28;20043;-75
2021/11/09 05:11:05;;;;;;;25.40;14.37;;;5.30;98.10;;;;;;5033604;28;20489;-76
2021/11/09 05:13:31;;;;;;;30.93;14.97;;;5.30;98.40;;;;;;5032639;28;20118;-75
2021/11/09 05:15:57;;;;;;;29.63;14.80;;;5.30;98.20;;;;;;5052030;28;20033;-75
2021/11/09 05:18:24;;;;;;;26.73;15.27;;;5.30;98.20;;;;;;5053283;28;20059;-75
2021/11/09 05:20:51;;;;;;;35.47;14.93;;;5.30;98.20;;;;;;5053250;28;20408;-75
2021/11/09 05:23:17;;;;;;;32.93;15.13;;;5.30;98.30;;;;;;5056272;28;20020;-75
2021/11/09 05:25:43;;;;;;;31.90;15.27;;;5.30;98.30;;;;;;5057679;28;20567;-75
2021/11/09 05:28:09;;;;;;;40.17;15.47;;;5.30;98.30;;;;;;5084653;28;20061;-75
2021/11/09 05:30:38;;;;;;;33.43;14.17;;;5.30;98.30;;;;;;5035001;28;20056;-74
2021/11/09 05:33:04;;;;;;;36.17;14.80;;;5.40;98.30;;;;;;5052382;28;20100;-74
2021/11/09 05:35:30;;;;;;;41.00;16.03;;;5.40;98.30;;;;;;5051601;28;20045;-75
2021/11/09 05:37:57;;;;;;;34.50;14.93;;;5.40;98.60;;;;;;5035275;28;20468;-75
2021/11/09 05:40:32;;;;;;;37.73;15.53;;;5.40;98.30;;;;;;5053158;28;20017;-73
2021/11/09 05:42:59;;;;;;;35.23;15.23;;;5.40;98.30;;;;;;5052184;28;20444;-73
2021/11/09 05:45:25;;;;;;;29.53;13.47;;;5.40;98.40;;;;;;5053260;28;20401;-73
2021/11/09 05:47:51;;;;;;;38.47;15.23;;;5.40;98.40;;;;;;5053493;28;20029;-72
2021/11/09 05:50:17;;;;;;;34.77;15.57;;;5.40;98.40;;;;;;5053189;28;20044;-73
2021/11/09 05:52:43;;;;;;;35.70;15.57;;;5.40;98.40;;;;;;5051975;28;20040;-73
2021/11/09 05:55:09;;;;;;;37.73;14.40;;;5.40;98.40;;;;;;5053390;28;20021;-73
2021/11/09 05:57:35;;;;;;;37.70;15.43;;;5.40;98.40;;;;;;5052331;28;20025;-73
2021/11/09 06:00:03;;;;;;;26.07;13.23;;;5.40;98.40;;;;;;5051891;28;20033;-75
2021/11/09 06:02:29;;;;;;;33.20;15.07;;;5.30;98.40;;;;;;5051800;28;20025;-73
2021/11/09 06:04:54;;;;;;;39.40;15.40;;;5.40;98.40;;;;;;5053175;28;20040;-72
2021/11/09 06:07:20;;;;;;;35.30;14.40;;;5.40;98.40;;;;;;5053739;28;20033;-72
2021/11/09 06:09:46;;;;;;;36.23;14.90;;;5.40;98.40;;;;;;5055971;28;20033;-72
2021/11/09 06:12:12;;;;;;;33.90;14.37;;;5.40;98.40;;;;;;5056093;28;20063;-73
2021/11/09 06:14:37;;;;;;;30.00;15.50;;;5.30;98.40;;;;;;5055932;28;20422;-72
2021/11/09 06:17:03;;;;;;;33.60;14.33;;;5.40;98.40;;;;;;5055291;28;20047;-73
2021/11/09 06:19:29;;;;;;;30.93;14.47;;;5.40;98.40;;;;;;5055604;28;20040;-72
2021/11/09 06:21:55;;;;;;;31.63;13.83;;;5.40;98.40;;;;;;5056942;28;20028;-72
2021/11/09 06:24:23;;;;;;;30.70;14.23;;;5.40;98.40;;;;;;5055575;28;20428;-72
2021/11/09 06:26:50;;;;;;;30.63;13.13;;;5.40;98.40;;;;;;5056924;28;20547;-72
2021/11/09 06:29:16;;;;;;;37.13;14.27;;;5.40;98.30;;;;;;5056866;28;20044;-72
2021/11/09 06:31:42;;;;;;;31.07;13.37;;;5.40;98.30;;;;;;5055662;28;20040;-72
2021/11/09 06:34:08;;;;;;;32.27;13.70;;;5.40;98.40;;;;;;5053853;28;20425;-72
2021/11/09 06:36:34;;;;;;;31.03;14.20;;;5.40;98.40;;;;;;5053867;28;20021;-72
2021/11/09 06:38:59;;;;;;;31.80;14.23;;;5.30;98.40;;;;;;5070195;28;20029;-72
2021/11/09 06:41:25;;;;;;;30.67;13.33;;;5.30;98.40;;;;;;5045578;28;20105;-72
2021/11/09 06:43:51;;;;;;;37.40;14.03;;;5.30;98.50;;;;;;5051897;28;20029;-71
2021/11/09 06:46:17;;;;;;;31.97;14.03;;;5.30;98.50;;;;;;5044293;28;20519;-72
2021/11/09 06:48:45;;;;;;;37.03;14.13;;;5.40;98.60;;;;;;5055503;28;20029;-72
2021/11/09 06:51:12;;;;;;;34.43;14.63;;;5.40;98.60;;;;;;5055847;28;20033;-71
2021/11/09 06:53:38;;;;;;;35.47;15.30;;;5.40;98.70;;;;;;5056380;28;20037;-72
2021/11/09 06:56:04;;;;;;;31.13;14.90;;;5.40;98.70;;;;;;5056161;28;20025;-72
2021/11/09 06:58:31;;;;;;;30.30;14.43;;;5.40;98.70;;;;;;5038223;28;20021;-72
2021/11/09 07:00:57;;;;;;;44.70;14.40;;;5.40;98.70;;;;;;5054709;28;20021;-72
2021/11/09 07:03:23;;;;;;;35.77;14.87;;;5.40;98.80;;;;;;5054716;28;20661;-72
2021/11/09 07:05:49;;;;;;;39.33;15.20;;;5.40;98.80;;;;;;5056236;28;20381;-72
2021/11/09 07:08:15;;;;;;;35.77;14.37;;;5.40;98.80;;;;;;5055271;28;20059;-72
2021/11/09 07:10:41;;;;;;;41.17;16.10;;;5.50;98.90;;;;;;5055435;28;20104;-71
2021/11/09 07:13:06;;;;;;;29.83;14.00;;;5.40;98.90;;;;;;5054693;28;20037;-72
2021/11/09 07:15:32;;;;;;;39.50;15.10;;;5.40;98.90;;;;;;5055142;28;20479;-72
2021/11/09 07:17:58;;;;;;;37.40;14.07;;;5.40;98.90;;;;;;5054827;28;20496;-73
2021/11/09 07:20:23;;;;;;;31.97;14.00;;;5.50;99.00;;;;;;5052588;28;20029;-72
2021/11/09 07:22:49;;;;;;;41.90;15.13;;;5.50;99.00;;;;;;5054138;28;20567;-72
2021/11/09 07:25:18;;;;;;;36.67;14.20;;;5.50;99.00;;;;;;5055064;28;20037;-71
2021/11/09 07:27:44;;;;;;;44.20;14.97;;;5.50;99.00;;;;;;5054152;28;20017;-72
2021/11/09 07:30:12;;;;;;;37.30;14.63;;;5.50;99.00;;;;;;5054016;28;20055;-72
2021/11/09 07:32:38;;;;;;;33.13;14.30;;;5.50;99.10;;;;;;5054069;28;20030;-72
2021/11/09 07:35:09;;;;;;;29.10;13.60;;;5.60;99.10;;;;;;5053853;28;20423;-72
2021/11/09 07:37:35;;;;;;;32.77;13.30;;;5.60;99.10;;;;;;5055725;28;20052;-71
2021/11/09 07:40:00;;;;;;;32.70;13.37;;;5.60;99.20;;;;;;5055480;28;20061;-72
2021/11/09 07:42:26;;;;;;;35.33;12.87;;;5.60;99.20;;;;;;5054005;28;20035;-71
2021/11/09 07:44:53;;;;;;;33.90;12.93;;;5.70;99.20;;;;;;5054291;28;20040;-72
2021/11/09 07:47:19;;;;;;;33.47;13.07;;;5.70;99.20;;;;;;5045873;28;20030;-72
2021/11/09 07:49:46;;;;;;;31.33;13.67;;;5.70;99.20;;;;;;5042474;28;20025;-72
2021/11/09 07:52:12;;;;;;;33.17;14.50;;;5.80;99.30;;;;;;5034660;28;20074;-72
2021/11/09 07:54:45;;;;;;;36.40;14.40;;;5.90;99.30;;;;;;5033764;28;20037;-72
2021/11/09 07:57:13;;;;;;;33.47;13.97;;;5.80;99.20;;;;;;5034973;28;20128;-72
2021/11/09 07:59:54;;;;;;;36.40;14.77;;;5.80;99.30;;;;;;5035037;28;20048;-71
2021/11/09 08:02:34;;;;;;;27.33;12.83;;;5.90;99.30;;;;;;5035170;28;20044;-72
2021/11/09 08:05:05;;;;;;;32.60;13.00;;;5.90;99.30;;;;;;5034075;28;20030;-72
2021/11/09 08:07:38;;;;;;;36.67;13.80;;;6.00;99.30;;;;;;5017897;28;20025;-72
2021/11/09 08:10:05;;;;;;;31.03;12.97;;;6.00;99.30;;;;;;5034759;28;20079;-71
2021/11/09 08:12:31;;;;;;;29.67;13.20;;;6.00;99.30;;;;;;5033534;28;20040;-75
2021/11/09 08:14:57;;;;;;;30.67;13.43;;;6.10;99.30;;;;;;5033643;28;20490;-75
2021/11/09 08:17:22;;;;;;;32.40;13.40;;;6.20;99.30;;;;;;5034741;28;20029;-76
2021/11/09 08:19:48;;;;;;;35.63;14.90;;;6.20;99.30;;;;;;5033260;28;20478;-75
2021/11/09 08:22:13;;;;;;;27.67;13.23;;;6.20;99.30;;;;;;5016872;28;20033;-75
2021/11/09 08:24:39;;;;;;;31.07;12.73;;;6.30;99.40;;;;;;5034466;28;20104;-75
2021/11/09 08:27:09;;;;;;;28.40;13.53;;;6.30;99.40;;;;;;5033156;28;20071;-75
2021/11/09 08:29:35;;;;;;;33.87;12.47;;;6.40;99.40;;;;;;5033321;28;20021;-75
2021/11/09 08:32:01;;;;;;;29.93;13.47;;;6.40;99.40;;;;;;5034017;28;20136;-71
2021/11/09 08:34:31;;;;;;;26.57;11.97;;;6.50;99.40;;;;;;5033160;28;20034;-72
2021/11/09 08:36:59;;;;;;;27.93;13.17;;;6.50;99.40;;;;;;5034190;28;20076;-72
2021/11/09 08:39:33;;;;;;;26.83;13.17;;;6.60;99.40;;;;;;5032918;28;20017;-72
2021/11/09 08:44:34;;;;;;;30.40;12.60;;;6.80;99.40;;;;;;5033278;28;20362;-72
2021/11/09 08:47:01;;;;;;;29.23;12.00;;;6.80;99.30;;;;;;5034250;28;20509;-72
2021/11/09 08:49:30;;;;;;;30.30;12.13;;;6.80;99.30;;;;;;5032746;28;20079;-72
2021/11/09 08:51:57;;;;;;;33.50;12.63;;;6.90;99.30;;;;;;5033999;28;20026;-72
2021/11/09 09:04:48;;;;;;;34.23;13.40;;;7.30;99.00;;;;;;5034017;28;20095;-72
2021/11/09 09:07:13;;;;;;;29.53;11.57;;;7.30;99.00;;;;;;5033679;28;20101;-72
2021/11/09 09:09:39;;;;;;;32.73;11.97;;;7.40;98.90;;;;;;5033702;28;20065;-72
2021/11/09 09:12:05;;;;;;;23.20;11.30;;;7.50;98.90;;;;;;5033784;28;20088;-72
2021/11/09 09:14:31;;;;;;;27.10;11.47;;;7.50;98.90;;;;;;5032242;28;20036;-72
2021/11/09 09:16:58;;;;;;;32.67;11.93;;;7.60;98.90;;;;;;5032354;28;20025;-71
2021/11/09 09:19:44;;;;;;;33.20;12.20;;;7.70;98.80;;;;;;5032392;28;20049;-72
2021/11/09 09:22:12;;;;;;;25.07;10.77;;;7.80;99.10;;;;;;5033423;28;20025;-72
2021/11/09 09:25:05;;;;;;;24.27;11.00;;;8.00;98.80;;;;;;5032139;28;20477;-72
2021/11/09 09:27:49;;;;;;;24.73;10.17;;;8.30;98.90;;;;;;5032256;28;20488;-72
2021/11/09 09:30:30;;;;;;;22.17;9.18;;;8.60;99.00;;;;;;5031983;28;20056;-72
2021/11/09 09:33:07;;;;;;;27.83;8.17;;;9.00;99.30;;;;;;5017693;28;20036;-72
2021/11/09 09:55:13;;;;;;;19.30;4.93;;;14.40;97.20;;;;;;5053434;28;19936;-71
2021/11/09 09:57:37;;;;;;;17.63;5.18;;;14.90;96.60;;;;;;5051659;28;20029;-72
2021/11/09 10:00:04;;;;;;;16.10;6.10;;;15.50;95.50;;;;;;5052128;28;20033;-71
2021/11/09 10:02:30;;;;;;;13.95;5.45;;;15.90;93.50;;;;;;5051849;28;20087;-71
2021/11/09 10:05:07;;;;;;;17.50;6.25;;;16.30;91.80;;;;;;5052043;28;20029;-71
2021/11/09 10:07:38;;;;;;;23.50;6.57;;;16.60;87.30;;;;;;5053240;28;20052;-72
2021/11/09 10:10:09;;;;;;;16.27;5.50;;;16.90;85.00;;;;;;5053235;28;20017;-72
2021/11/09 10:12:37;;;;;;;16.33;6.30;;;17.20;84.50;;;;;;5053234;28;20029;-71
2021/11/09 10:15:30;;;;;;;17.90;6.15;;;17.50;82.40;;;;;;5052942;28;20033;-72
2021/11/09 10:18:03;;;;;;;20.23;5.87;;;17.90;79.40;;;;;;5051132;28;20120;-71
2021/11/09 10:20:32;;;;;;;15.27;5.00;;;18.20;78.30;;;;;;5053206;28;20029;-71
2021/11/09 10:23:06;;;;;;;14.02;5.88;;;18.50;75.90;;;;;;5053059;28;20052;-71
2021/11/09 10:25:33;;;;;;;;;;;18.70;72.10;;;;;;5053812;28;20025;-71
2021/11/09 10:28:05;;;;;;;18.83;5.72;;;18.90;72.20;;;;;;5051543;28;20349;-72
2021/11/09 10:30:35;;;;;;;16.50;5.90;;;19.00;69.10;;;;;;5052913;28;20373;-71
2021/11/09 10:33:00;;;;;;;14.55;5.32;;;19.00;68.30;;;;;;5051813;28;20017;-72
2021/11/09 10:35:28;;;;;;;14.82;5.18;;;19.20;67.70;;;;;;5053031;28;20037;-71
2021/11/09 10:37:57;;;;;;;12.65;4.93;;;19.50;66.40;;;;;;5051821;28;20033;-72
2021/11/09 10:40:25;;;;;;;14.90;5.18;;;19.80;65.60;;;;;;5053118;28;20029;-71
2021/11/09 10:42:54;;;;;;;13.65;4.85;;;20.10;63.70;;;;;;5052967;28;20025;-72
2021/11/09 10:45:25;;;;;;;12.85;4.22;;;20.30;62.70;;;;;;5052877;28;20032;-71
2021/11/09 10:47:54;;;;;;;13.50;4.53;;;20.60;61.90;;;;;;5052612;28;20029;-71
2021/11/09 10:50:24;;;;;;;15.95;4.53;;;20.80;61.70;;;;;;5052546;28;20474;-72
2021/11/09 10:53:20;;;;;;;14.02;5.22;;;21.10;61.30;;;;;;5052785;28;20374;-72
2021/11/09 11:04:11;;;;;;;16.92;5.40;;;21.70;55.10;;;;;;5056511;28;20455;-77
2021/11/09 11:06:43;;;;;;;15.45;4.95;;;21.60;53.40;;;;;;5056206;28;20384;-76
2021/11/09 11:09:12;;;;;;;14.30;4.72;;;21.70;53.40;;;;;;5054876;28;20024;-76
2021/11/09 11:11:40;;;;;;;15.10;5.53;;;21.70;53.70;;;;;;5054899;28;20021;-77
2021/11/09 11:14:07;;;;;;;12.20;4.65;;;21.70;52.50;;;;;;5055572;28;20064;-75
2021/11/09 11:16:54;;;;;;;11.27;3.97;;;21.60;52.50;;;;;;5055697;28;20029;-77
2021/11/09 11:19:22;;;;;;;15.35;5.07;;;21.40;52.40;;;;;;5056057;28;20025;-76
2021/11/09 11:21:49;;;;;;;12.88;4.55;;;21.50;53.00;;;;;;5055801;28;20132;-76
2021/11/09 11:24:15;;;;;;;19.10;5.40;;;21.70;52.90;;;;;;5054550;28;20029;-77
2021/11/09 11:26:43;;;;;;;12.68;4.38;;;21.90;51.40;;;;;;5056161;28;20055;-76
2021/11/09 11:29:09;;;;;;;12.10;4.07;;;21.90;51.70;;;;;;5054557;28;20411;-76
2021/11/09 11:31:35;;;;;;;16.42;5.15;;;22.00;51.90;;;;;;5055674;28;20044;-76
2021/11/09 11:34:02;;;;;;;15.63;5.28;;;22.10;51.10;;;;;;5055419;28;20041;-76
2021/11/09 11:36:27;;;;;;;14.15;4.85;;;22.20;51.20;;;;;;5055553;28;20438;-75
2021/11/09 11:38:59;;;;;;;11.88;4.38;;;22.50;51.30;;;;;;5055689;28;20111;-76
2021/11/09 11:41:30;;;;;;;14.65;4.32;;;22.80;49.60;;;;;;5054176;28;20108;-77
2021/11/09 11:43:58;;;;;;;14.02;4.55;;;23.00;49.40;;;;;;5055716;28;20029;-77
2021/11/09 11:46:33;;;;;;;12.15;4.93;;;23.20;49.90;;;;;;5054020;28;20388;-76
2021/11/09 11:49:08;;;;;;;16.55;4.32;;;23.60;49.20;;;;;;5055540;28;20032;-77
2021/11/09 11:51:40;;;;;;;13.23;4.57;;;24.00;49.10;;;;;;5055188;28;20040;-75
2021/11/09 11:54:07;;;;;;;12.10;4.38;;;24.00;49.20;;;;;;5055170;28;20036;-76
2021/11/09 11:56:42;;;;;;;15.48;4.80;;;24.10;48.00;;;;;;5055432;28;20460;-76
2021/11/09 11:59:21;;;;;;;16.30;5.15;;;24.10;47.30;;;;;;5054733;28;20032;-76
2021/11/09 12:01:58;;;;;;;15.18;5.35;;;24.10;46.90;;;;;;5054967;28;20032;-77
2021/11/09 12:04:52;;;;;;;13.98;4.65;;;24.20;46.60;;;;;;5054853;28;20035;-77
2021/11/09 12:07:20;;;;;;;11.30;4.05;;;24.10;45.10;;;;;;5085736;28;20489;-77
2021/11/09 12:09:51;;;;;;;14.38;4.28;;;24.00;46.20;;;;;;5053435;28;20039;-77
2021/11/09 12:12:20;;;;;;;16.10;4.97;;;23.90;45.60;;;;;;5053449;28;20047;-76
2021/11/09 12:14:58;;;;;;;10.60;3.63;;;23.90;45.30;;;;;;5054727;28;20024;-77
2021/11/09 12:17:43;;;;;;;11.23;3.58;;;24.10;45.50;;;;;;5054763;28;20051;-77
2021/11/09 12:20:10;;;;;;;16.10;4.28;;;24.20;45.80;;;;;;5036540;28;20063;-77
2021/11/09 12:22:50;;;;;;;10.57;4.18;;;24.30;45.70;;;;;;5054667;28;20071;-77
2021/11/09 12:25:22;;;;;;;15.75;5.05;;;24.30;45.00;;;;;;5054509;28;20035;-77
2021/11/09 12:27:51;;;;;;;13.35;4.20;;;24.20;44.30;;;;;;5054539;28;20029;-73
2021/11/09 12:30:41;;;;;;;11.35;3.80;;;24.40;45.00;;;;;;5054398;28;20433;-72
2021/11/09 12:33:07;;;;;;;13.75;4.18;;;24.60;44.70;;;;;;5051579;28;20036;-72
2021/11/09 12:35:35;;;;;;;14.43;4.07;;;24.80;45.40;;;;;;5054384;28;20032;-74
2021/11/09 12:38:03;;;;;;;15.95;4.40;;;25.00;44.80;;;;;;5053072;28;20025;-73
2021/11/09 12:40:47;;;;;;;13.50;4.40;;;25.10;44.30;;;;;;5049849;28;20025;-72
2021/11/09 12:43:40;;;;;;;16.15;4.95;;;25.20;42.90;;;;;;5032847;28;20034;-73
2021/11/09 12:46:10;;;;;;;14.30;4.22;;;25.40;42.70;;;;;;5065366;28;20029;-72
2021/11/09 12:48:53;;;;;;;16.98;5.68;;;25.50;42.90;;;;;;5034351;28;20029;-73
2021/11/09 12:51:21;;;;;;;15.82;5.45;;;25.50;42.20;;;;;;5066186;28;20484;-73
2021/11/09 12:53:49;;;;;;;14.20;4.70;;;25.50;41.70;;;;;;5034013;28;20076;-73
2021/11/09 12:56:17;;;;;;;14.18;4.93;;;25.40;42.20;;;;;;5031868;28;20032;-72
2021/11/09 12:58:56;;;;;;;17.27;5.15;;;25.50;42.60;;;;;;5033913;28;20075;-73
2021/11/09 13:09:55;;;;;;;15.52;5.72;;;25.60;41.20;;;;;;5033866;28;20037;-72
2021/11/09 13:12:23;;;;;;;12.73;4.97;;;25.70;41.00;;;;;;5065811;28;20381;-73
2021/11/09 13:14:51;;;;;;;13.93;4.82;;;25.60;41.20;;;;;;5033888;28;20022;-73
2021/11/09 13:17:23;;;;;;;13.77;4.40;;;25.50;41.50;;;;;;5032910;28;20030;-72
2021/11/09 13:20:14;;;;;;;14.60;4.75;;;25.70;41.40;;;;;;5066156;28;20385;-73
2021/11/09 13:23:00;;;;;;;14.60;4.53;;;25.60;40.90;;;;;;5065932;28;20017;-73
2021/11/09 13:25:42;;;;;;;14.38;4.95;;;25.30;40.60;;;;;;5033428;28;20049;-73
2021/11/09 13:28:32;;;;;;;12.73;4.60;;;25.20;41.30;;;;;;5065966;28;20030;-73
2021/11/09 13:31:02;;;;;;;17.35;5.10;;;25.30;41.40;;;;;;5065515;28;20628;-73
2021/11/09 13:33:31;;;;;;;12.15;4.47;;;25.20;40.80;;;;;;5033245;28;20033;-73
2021/11/09 13:35:57;;;;;;;14.27;4.10;;;25.20;41.20;;;;;;5048718;28;20021;-73
2021/11/09 13:38:25;;;;;;;11.05;4.03;;;25.20;41.40;;;;;;5033361;28;20034;-73
2021/11/09 13:41:02;;;;;;;13.57;3.95;;;25.20;41.20;;;;;;5033031;28;20021;-73
2021/11/09 13:43:39;;;;;;;18.20;5.03;;;24.90;41.60;;;;;;5065251;28;20433;-72
2021/11/09 13:46:14;;;;;;;12.57;4.10;;;24.70;41.00;;;;;;5033202;28;20025;-72
2021/11/09 13:48:43;;;;;;;18.92;5.20;;;24.40;40.60;;;;;;5033272;28;20030;-72
2021/11/09 13:51:11;;;;;;;16.38;4.60;;;24.00;41.00;;;;;;5064923;28;20021;-73
2021/11/09 13:53:41;;;;;;;14.52;4.35;;;23.60;41.60;;;;;;5032562;28;20021;-73
2021/11/09 13:56:14;;;;;;;11.65;4.47;;;23.20;42.10;;;;;;5033350;28;20026;-72
2021/11/09 13:58:51;;;;;;;;;;;22.80;42.20;;;;;;5048750;28;20117;-72
2021/11/09 14:01:29;;;;;;;17.92;4.60;;;22.30;42.70;;;;;;5065244;28;19913;-72
2021/11/09 14:11:51;;;;;;;16.25;5.38;;;21.00;45.00;;;;;;5033366;28;20029;-72
2021/11/09 14:14:55;;;;;;;16.77;4.15;;;20.60;45.50;;;;;;5032225;28;20075;-72
2021/11/09 14:17:10;;;;;;;14.63;4.63;;;20.00;46.40;;;;;;5029990;28;20037;-72
2021/11/09 14:19:39;;;;;;;20.60;5.50;;;19.40;47.20;;;;;;5031931;28;20280;-72
2021/11/09 14:22:16;;;;;;;13.00;4.45;;;19.00;48.10;;;;;;5033304;28;20022;-72
2021/11/09 14:24:58;;;;;;;19.65;4.85;;;18.50;49.10;;;;;;5031717;28;20445;-72
2021/11/09 14:27:39;;;;;;;16.95;4.13;;;18.10;49.90;;;;;;5033319;28;20022;-72
2021/11/09 14:30:07;;;;;;;14.00;4.00;;;17.80;50.50;;;;;;5036153;28;20048;-71
2021/11/09 14:32:36;;;;;;;14.18;3.70;;;17.60;51.10;;;;;;5037055;28;20473;-71
2021/11/09 14:35:22;;;;;;;18.23;4.53;;;17.40;51.70;;;;;;5036953;28;20025;-71
2021/11/09 14:37:56;;;;;;;18.70;4.00;;;17.20;52.10;;;;;;5036816;28;20026;-72
2021/11/09 14:40:38;;;;;;;16.70;4.47;;;17.00;52.70;;;;;;5068689;28;20018;-72
2021/11/09 14:43:26;;;;;;;13.10;3.67;;;16.90;53.40;;;;;;5036866;28;20021;-71
2021/11/09 14:46:05;;;;;;;14.75;4.13;;;16.70;53.90;;;;;;5036688;28;20028;-72
2021/11/09 14:48:49;;;;;;;23.13;4.40;;;16.70;54.10;;;;;;5068797;28;20075;-72
2021/11/09 14:51:20;;;;;;;17.97;4.60;;;16.60;54.60;;;;;;5036453;28;20026;-72
2021/11/09 14:56:21;;;;;;;14.38;4.70;;;16.30;55.50;;;;;;5036179;28;20026;-73
2021/11/09 14:58:50;;;;;;;19.13;4.38;;;16.30;55.90;;;;;;5036095;28;20021;-76
2021/11/09 15:01:32;;;;;;;17.38;4.30;;;16.30;56.40;;;;;;5046683;28;20616;-76
2021/11/09 15:04:00;;;;;;;15.30;4.07;;;16.20;56.50;;;;;;5035632;28;20480;-76
2021/11/09 15:30:42;;;;;;;9.43;2.90;;;15.20;58.90;;;;;;5054248;28;20065;-72
2021/11/09 15:33:16;;;;;;;14.88;3.70;;;15.10;59.20;;;;;;5055396;28;20493;-72
2021/11/09 15:35:57;;;;;;;14.80;3.65;;;15.00;59.50;;;;;;5053978;28;20033;-72
2021/11/09 15:38:24;;;;;;;13.60;3.58;;;15.00;59.90;;;;;;5054029;28;20432;-72
2021/11/09 15:40:53;;;;;;;18.83;3.40;;;15.00;59.90;;;;;;5053280;28;20071;-72
2021/11/09 15:43:20;;;;;;;16.70;3.30;;;14.90;60.10;;;;;;5054117;28;20033;-72
2021/11/09 15:45:46;;;;;;;14.77;3.60;;;14.80;60.20;;;;;;5055393;28;20108;-76
2021/11/09 15:48:12;;;;;;;14.82;3.65;;;14.80;60.40;;;;;;5055086;28;20029;-75